Time;durP1;ratioP1;P1;durP2;ratioP2;P2;SDS_P1;SDS_P2;PMS_P1;PMS_P2;Temp;Humidity;BMP_temperature;BMP_pressure;BME280_temperature;BME280_humidity;BME280_pressure;Samples;Min_cycle;Max_cycle;Signal;HPM_P1;HPM_P2
2023/06/05 00:00:33;;;;;;;2.20;2.00;;;;;;;24.30;42.56;98472.13;105939;1254;71501;-87
2023/06/05 00:03:01;;;;;;;2.20;2.00;;;;;;;24.30;42.49;98472.52;106021;1252;60564;-87
2023/06/05 00:05:31;;;;;;;1.60;1.50;;;;;;;24.30;42.65;98468.67;106055;1255;60535;-87
2023/06/05 00:07:59;;;;;;;2.20;2.00;;;;;;;24.29;42.61;98470.52;105981;1254;73982;-89
2023/06/05 00:10:27;;;;;;;1.90;1.70;;;;;;;24.29;42.63;98469.45;105686;1261;69050;-88
2023/06/05 00:12:55;;;;;;;2.00;1.80;;;;;;;24.30;42.54;98471.08;105944;1259;73084;-88
2023/06/05 00:15:23;;;;;;;2.00;1.60;;;;;;;24.29;42.57;98468.15;107859;1254;60320;-87
2023/06/05 00:17:51;;;;;;;2.40;2.10;;;;;;;24.29;42.57;98471.62;109303;1253;58839;-87
2023/06/05 00:20:19;;;;;;;2.00;1.80;;;;;;;24.30;42.61;98471.79;109470;1253;72867;-85
2023/06/05 00:22:48;;;;;;;2.20;2.00;;;;;;;24.30;42.59;98467.83;107463;1254;67530;-86
2023/06/05 00:25:16;;;;;;;2.10;1.90;;;;;;;24.32;42.54;98467.43;107208;1254;72777;-86
2023/06/05 00:27:44;;;;;;;1.70;1.60;;;;;;;24.33;42.54;98468.79;106034;1254;60533;-87
2023/06/05 00:30:13;;;;;;;2.50;1.90;;;;;;;24.34;42.50;98467.58;105708;1260;60444;-87
2023/06/05 00:32:41;;;;;;;2.00;1.80;;;;;;;24.35;42.42;98468.55;105888;1259;73926;-87
2023/06/05 00:35:09;;;;;;;2.00;1.80;;;;;;;24.35;42.43;98470.85;105797;1254;68611;-88
2023/06/05 00:37:37;;;;;;;1.90;1.80;;;;;;;24.35;42.47;98468.86;105820;1254;71504;-88
2023/06/05 00:40:06;;;;;;;2.00;1.80;;;;;;;24.35;42.45;98467.26;105822;1260;61056;-87
2023/06/05 00:42:34;;;;;;;1.70;1.60;;;;;;;24.35;42.46;98468.77;105890;1259;59270;-87
2023/06/05 00:45:03;;;;;;;2.20;1.90;;;;;;;24.34;42.39;98470.32;105772;1254;73635;-88
2023/06/05 00:47:32;;;;;;;1.80;1.70;;;;;;;24.34;42.35;98469.02;106001;1253;68485;-88
2023/06/05 00:50:01;;;;;;;2.10;1.90;;;;;;;24.34;42.37;98466.84;105749;1261;73033;-87
2023/06/05 00:52:29;;;;;;;1.70;1.50;;;;;;;24.33;42.40;98466.60;105904;1254;60495;-88
2023/06/05 00:54:58;;;;;;;2.20;1.90;;;;;;;24.32;42.36;98461.94;105550;1254;60943;-87
2023/06/05 00:57:27;;;;;;;2.20;1.70;;;;;;;24.32;42.43;98463.83;105771;1254;72739;-87
2023/06/05 00:59:55;;;;;;;2.00;1.90;;;;;;;24.31;42.39;98463.92;105903;1254;68653;-87
2023/06/05 01:02:24;;;;;;;2.00;1.80;;;;;;;24.30;42.56;98466.90;105685;1254;72010;-88
2023/06/05 01:04:53;;;;;;;2.80;1.80;;;;;;;24.30;42.42;98466.98;105814;1254;60463;-88
2023/06/05 01:07:21;;;;;;;1.90;1.70;;;;;;;24.29;42.45;98461.60;105850;1260;60445;-86
2023/06/05 01:09:49;;;;;;;2.10;1.90;;;;;;;24.29;42.44;98460.92;105883;1259;75915;-88
2023/06/05 01:12:33;;;;;;;2.30;2.00;;;;;;;24.28;42.48;98463.54;105693;1254;70658;-87
2023/06/05 01:15:02;;;;;;;2.00;1.70;;;;;;;24.28;42.54;98463.58;105828;1254;71499;-86
2023/06/05 01:17:32;;;;;;;1.90;1.70;;;;;;;24.28;42.49;98467.25;105941;1254;60524;-87
2023/06/05 01:20:06;;;;;;;1.80;1.70;;;;;;;24.27;42.54;98462.77;105655;1253;60483;-87
2023/06/05 01:22:37;;;;;;;1.60;1.50;;;;;;;24.27;42.42;98464.64;106012;1254;73387;-86
2023/06/05 01:25:09;;;;;;;2.20;2.00;;;;;;;24.27;42.46;98465.77;105989;1256;69772;-88
2023/06/05 01:27:42;;;;;;;1.90;1.80;;;;;;;24.27;42.53;98460.81;105665;1260;72833;-85
2023/06/05 01:30:16;;;;;;;2.00;1.80;;;;;;;24.26;42.47;98464.54;105913;1257;62245;-87
2023/06/05 01:32:54;;;;;;;1.80;1.70;;;;;;;24.26;42.47;98461.65;105906;1254;60360;-87
2023/06/05 01:35:27;;;;;;;2.40;1.80;;;;;;;24.26;42.50;98463.52;105880;1256;74027;-87
2023/06/05 01:37:57;;;;;;;1.80;1.70;;;;;;;24.25;42.44;98460.80;105778;1254;68821;-87
2023/06/05 01:40:25;;;;;;;1.60;1.50;;;;;;;24.25;42.52;98463.96;105933;1256;71410;-88
2023/06/05 01:42:54;;;;;;;2.40;2.10;;;;;;;24.25;42.40;98465.65;105732;1253;60514;-87
2023/06/05 01:45:22;;;;;;;1.50;1.40;;;;;;;24.25;42.47;98466.36;105943;1254;61122;-87
2023/06/05 01:47:50;;;;;;;2.10;1.90;;;;;;;24.25;42.51;98466.70;105806;1253;73002;-88
2023/06/05 01:50:18;;;;;;;1.80;1.60;;;;;;;24.24;42.43;98471.00;105808;1260;67595;-87
2023/06/05 01:52:46;;;;;;;2.10;1.70;;;;;;;24.24;42.46;98473.23;105776;1254;72822;-88
2023/06/05 01:55:23;;;;;;;1.60;1.50;;;;;;;24.24;42.51;98473.62;105831;1260;60479;-87
2023/06/05 01:57:52;;;;;;;1.60;1.50;;;;;;;24.23;42.48;98479.95;106016;1257;60542;-87
2023/06/05 02:00:20;;;;;;;1.70;1.40;;;;;;;24.23;42.45;98481.77;105693;1254;72782;-88
2023/06/05 02:02:50;;;;;;;2.00;1.50;;;;;;;24.23;42.50;98477.74;105929;1254;68906;-86
2023/06/05 02:05:20;;;;;;;2.80;1.80;;;;;;;24.22;42.45;98476.75;105925;1254;75022;-88
2023/06/05 02:07:53;;;;;;;2.80;1.60;;;;;;;24.23;42.51;98479.25;105758;1254;60523;-87
2023/06/05 02:10:23;;;;;;;1.70;1.60;;;;;;;24.22;42.51;98481.70;105896;1259;62272;-88
2023/06/05 02:12:51;;;;;;;1.50;1.40;;;;;;;24.22;42.49;98476.93;105691;1253;73774;-86
2023/06/05 02:15:19;;;;;;;2.00;1.70;;;;;;;24.21;42.50;98476.66;105837;1259;67326;-88
2023/06/05 02:17:52;;;;;;;1.70;1.60;;;;;;;24.22;42.47;98475.36;105824;1254;71003;-87
2023/06/05 02:20:27;;;;;;;1.70;1.60;;;;;;;24.22;42.45;98479.37;105734;1254;60470;-87
2023/06/05 02:22:56;;;;;;;1.80;1.70;;;;;;;24.21;42.55;98476.33;105930;1253;60344;-87
2023/06/05 02:25:26;;;;;;;3.10;1.70;;;;;;;24.21;42.54;98478.02;105758;1254;72685;-88
2023/06/05 02:27:55;;;;;;;2.00;1.40;;;;;;;24.21;42.45;98478.55;105762;1253;67499;-88
2023/06/05 02:30:23;;;;;;;1.90;1.80;;;;;;;24.21;42.45;98482.10;105796;1257;72795;-88
2023/06/05 02:33:00;;;;;;;1.80;1.70;;;;;;;24.21;42.43;98482.44;105806;1254;60435;-87
2023/06/05 02:35:29;;;;;;;2.50;2.00;;;;;;;24.21;42.38;98483.37;105637;1252;60973;-87
2023/06/05 02:37:57;;;;;;;2.60;1.70;;;;;;;24.20;42.48;98481.20;105621;1254;72637;-88
2023/06/05 02:40:25;;;;;;;3.00;2.00;;;;;;;24.20;42.41;98479.98;105602;1260;67780;-87
2023/06/05 02:42:55;;;;;;;2.00;1.80;;;;;;;24.20;42.46;98484.16;105563;1254;72761;-86
2023/06/05 02:45:24;;;;;;;1.80;1.60;;;;;;;24.20;42.46;98485.80;105855;1259;61021;-86
2023/06/05 02:47:53;;;;;;;1.90;1.70;;;;;;;24.19;42.43;98484.23;105807;1254;60966;-87
2023/06/05 02:50:21;;;;;;;1.80;1.50;;;;;;;24.19;42.48;98483.13;105953;1254;72846;-88
2023/06/05 02:52:51;;;;;;;1.70;1.50;;;;;;;24.18;42.48;98481.19;106832;1253;69248;-87
2023/06/05 02:55:37;;;;;;;1.70;1.60;;;;;;;24.19;42.47;98481.53;109351;1252;73770;-84
2023/06/05 02:58:12;;;;;;;1.30;1.20;;;;;;;24.19;42.45;98479.73;109563;1253;59126;-84
2023/06/05 03:00:50;;;;;;;1.70;1.60;;;;;;;24.20;42.37;98481.76;106643;1252;60406;-86
2023/06/05 03:03:20;;;;;;;2.20;2.00;;;;;;;24.21;42.34;98484.73;105779;1260;76065;-87
2023/06/05 03:05:49;;;;;;;2.30;1.80;;;;;;;24.22;42.33;98485.02;105876;1254;68940;-87
2023/06/05 03:08:17;;;;;;;2.00;1.80;;;;;;;24.23;42.37;98486.23;105686;1254;74873;-88
2023/06/05 03:10:46;;;;;;;1.50;1.40;;;;;;;24.23;42.47;98488.90;105811;1253;60569;-87
2023/06/05 03:13:14;;;;;;;1.80;1.70;;;;;;;24.24;42.30;98493.38;106234;1254;60482;-87
2023/06/05 03:15:42;;;;;;;1.90;1.70;;;;;;;24.24;42.36;98492.29;106024;1254;71775;-86
2023/06/05 03:18:13;;;;;;;1.90;1.70;;;;;;;24.24;42.18;98489.20;105817;1254;68900;-88
2023/06/05 03:20:42;;;;;;;1.90;1.70;;;;;;;24.24;42.29;98487.92;106651;1254;72731;-87
2023/06/05 03:23:13;;;;;;;1.80;1.60;;;;;;;24.23;42.28;98488.73;109014;1254;58879;-87
2023/06/05 03:25:41;;;;;;;2.10;1.90;;;;;;;24.23;42.31;98488.67;109189;1252;61057;-85
2023/06/05 03:28:09;;;;;;;1.30;1.20;;;;;;;24.25;42.27;98493.80;109326;1253;72588;-87
2023/06/05 03:30:38;;;;;;;2.10;1.70;;;;;;;24.25;42.25;98489.92;109418;1254;69813;-84
2023/06/05 03:33:17;;;;;;;2.20;2.00;;;;;;;24.27;42.34;98492.10;107880;1253;73863;-87
2023/06/05 03:35:46;;;;;;;1.70;1.60;;;;;;;24.28;42.15;98498.48;105971;1254;60918;-88
2023/06/05 03:38:14;;;;;;;2.50;1.80;;;;;;;24.29;42.11;98496.60;105959;1254;60462;-87
2023/06/05 03:40:43;;;;;;;1.70;1.60;;;;;;;24.29;42.25;98495.77;105676;1260;73922;-87
2023/06/05 03:43:12;;;;;;;3.80;1.80;;;;;;;24.30;42.20;98496.66;105966;1254;68534;-88
2023/06/05 03:45:40;;;;;;;2.00;1.80;;;;;;;24.30;42.09;98498.48;106065;1254;72771;-89
2023/06/05 03:48:11;;;;;;;2.00;1.90;;;;;;;24.29;42.12;98497.66;105881;1254;60575;-85
2023/06/05 03:50:42;;;;;;;2.10;1.80;;;;;;;24.29;42.12;98500.83;105852;1254;60498;-86
2023/06/05 03:53:13;;;;;;;1.40;1.30;;;;;;;24.28;42.12;98500.86;105896;1254;72659;-85
2023/06/05 03:55:41;;;;;;;3.10;1.80;;;;;;;24.27;42.21;98505.02;105804;1253;69050;-87
2023/06/05 03:58:19;;;;;;;2.00;1.80;;;;;;;24.26;42.08;98501.64;105982;1254;72764;-90
2023/06/05 04:00:49;;;;;;;4.20;1.90;;;;;;;24.26;42.13;98503.91;105869;1253;60472;-88
2023/06/05 04:03:19;;;;;;;3.20;1.90;;;;;;;24.25;42.20;98503.61;105946;1259;61186;-82
2023/06/05 04:05:49;;;;;;;2.20;1.80;;;;;;;24.24;42.15;98500.77;105864;1258;73902;-87
2023/06/05 04:08:17;;;;;;;2.00;1.40;;;;;;;24.23;42.23;98500.96;105869;1254;69449;-88
2023/06/05 04:10:45;;;;;;;2.00;1.80;;;;;;;24.23;42.24;98500.29;105778;1254;72757;-89
2023/06/05 04:13:13;;;;;;;2.10;1.80;;;;;;;24.22;42.24;98502.55;105728;1252;60453;-88
2023/06/05 04:15:44;;;;;;;2.20;1.90;;;;;;;24.22;42.30;98504.61;105662;1252;60629;-89
2023/06/05 04:18:12;;;;;;;2.00;1.60;;;;;;;24.22;42.32;98511.23;105993;1254;72642;-89
2023/06/05 04:20:40;;;;;;;1.70;1.50;;;;;;;24.20;42.28;98509.91;105761;1254;71072;-87
2023/06/05 04:23:09;;;;;;;5.10;1.90;;;;;;;24.20;42.35;98511.19;105926;1252;71148;-85
2023/06/05 04:25:45;;;;;;;2.30;1.90;;;;;;;24.20;42.50;98509.58;105758;1254;60688;-90
2023/06/05 04:28:15;;;;;;;4.30;2.60;;;;;;;24.19;42.45;98509.69;107371;1254;60491;-87
2023/06/05 04:30:45;;;;;;;2.90;1.90;;;;;;;24.19;42.59;98512.42;108506;1253;73102;-87
2023/06/05 04:33:16;;;;;;;4.70;2.00;;;;;;;24.20;42.63;98510.16;108255;1254;67253;-88
2023/06/05 04:35:45;;;;;;;4.40;1.60;;;;;;;24.20;42.64;98507.73;106928;1254;71500;-88
2023/06/05 04:38:13;;;;;;;5.70;1.70;;;;;;;24.21;42.61;98506.93;106197;1254;60358;-90
2023/06/05 04:40:43;;;;;;;7.30;1.70;;;;;;;24.22;42.69;98505.54;106063;1254;60543;-91
2023/06/05 04:43:11;;;;;;;5.70;2.00;;;;;;;24.22;42.68;98509.30;105894;1254;73954;-89
2023/06/05 04:45:41;;;;;;;2.80;1.60;;;;;;;24.23;42.71;98512.19;105983;1254;68948;-88
2023/06/05 04:48:10;;;;;;;4.80;2.20;;;;;;;24.22;42.65;98511.51;106022;1254;73878;-91
2023/06/05 04:50:40;;;;;;;4.30;1.80;;;;;;;24.23;42.67;98510.88;106086;1260;61044;-91
2023/06/05 04:53:10;;;;;;;3.60;2.20;;;;;;;24.22;42.72;98510.74;106368;1254;62077;-89
2023/06/05 04:55:39;;;;;;;3.90;2.10;;;;;;;24.22;42.69;98510.96;106373;1257;76187;-90
2023/06/05 04:58:08;;;;;;;3.00;1.90;;;;;;;24.22;42.72;98511.70;106264;1256;69512;-87
2023/06/05 05:00:36;;;;;;;3.40;2.00;;;;;;;24.22;42.62;98517.16;105945;1254;71782;-89
2023/06/05 05:03:04;;;;;;;4.50;2.20;;;;;;;24.22;42.71;98514.83;106580;1254;61486;-91
2023/06/05 05:05:36;;;;;;;2.60;1.90;;;;;;;24.22;42.69;98517.19;107018;1254;60431;-81
2023/06/05 05:08:05;;;;;;;9.80;3.40;;;;;;;24.22;42.60;98519.39;108372;1253;73119;-87
2023/06/05 05:10:33;;;;;;;16.40;2.90;;;;;;;24.17;42.64;98517.75;107942;1260;69368;-87
2023/06/05 05:13:10;;;;;;;14.40;3.70;;;;;;;24.05;42.60;98519.52;108696;1252;71809;-92
2023/06/05 05:15:46;;;;;;;17.60;3.90;;;;;;;23.93;42.10;98523.54;108521;1254;58511;-92
2023/06/05 05:18:25;;;;;;;13.60;2.90;;;;;;;23.82;41.92;98527.02;108377;1253;60422;-91
2023/06/05 05:20:53;;;;;;;10.20;2.70;;;;;;;23.73;41.54;98527.73;108178;1253;72601;-92
2023/06/05 05:23:23;;;;;;;6.70;2.80;;;;;;;23.66;41.51;98528.25;108645;1246;68937;-92
2023/06/05 05:26:07;;;;;;;7.90;2.60;;;;;;;23.60;41.29;98530.35;108256;1256;75076;-88
2023/06/05 05:45:42;;;;;;;6.60;2.30;;;;;;;23.51;40.69;98529.67;105768;1280;614289;-89
2023/06/05 05:48:29;;;;;;;3.50;2.00;;;;;;;23.52;40.94;98527.39;103964;1265;5004294;-86
2023/06/05 05:50:57;;;;;;;5.80;2.20;;;;;;;23.49;40.94;98531.02;107817;1266;60853;-85
2023/06/05 05:53:28;;;;;;;15.30;3.50;;;;;;;23.44;41.04;98530.52;107226;1266;72839;-90
2023/06/05 05:56:27;;;;;;;6.90;1.90;;;;;;;23.38;40.71;98530.09;108349;1257;68549;-90
2023/06/05 05:58:57;;;;;;;2.90;2.00;;;;;;;23.31;40.62;98531.05;107846;1257;72678;-90
2023/06/05 06:01:48;;;;;;;10.00;1.90;;;;;;;23.25;40.65;98529.39;108188;1263;59988;-90
2023/06/05 06:04:26;;;;;;;3.10;2.10;;;;;;;23.18;40.43;98528.02;107811;1260;60003;-88
2023/06/05 06:07:58;;;;;;;3.70;2.20;;;;;;;23.12;40.66;98525.94;107751;1263;72967;-90
2023/06/05 06:11:36;;;;;;;3.70;2.40;;;;;;;23.05;40.70;98523.08;108155;1259;67587;-90
2023/06/05 06:14:15;;;;;;;4.10;2.70;;;;;;;23.00;40.59;98523.50;108221;1266;70836;-90
2023/06/05 06:16:54;;;;;;;7.60;2.10;;;;;;;22.96;40.93;98528.70;108022;1259;60478;-90
2023/06/05 06:19:29;;;;;;;3.60;2.10;;;;;;;22.93;41.12;98532.59;108090;1260;59260;-92
2023/06/05 06:22:11;;;;;;;12.20;3.80;;;;;;;22.90;41.40;98532.67;108369;1259;73398;-90
2023/06/05 06:24:52;;;;;;;4.30;2.70;;;;;;;22.92;41.55;98532.55;108685;1259;67532;-90
2023/06/05 06:27:30;;;;;;;5.40;2.30;;;;;;;22.93;41.45;98533.70;108532;1259;72713;-91
2023/06/05 06:31:07;;;;;;;3.60;2.20;;;;;;;22.96;41.52;98530.09;108677;1259;59873;-88
2023/06/05 06:33:38;;;;;;;4.40;2.30;;;;;;;22.97;41.69;98530.75;108089;1260;59284;-88
2023/06/05 06:36:24;;;;;;;4.10;2.10;;;;;;;22.99;41.68;98526.86;107625;1262;73001;-91
2023/06/05 06:38:51;;;;;;;6.20;2.20;;;;;;;23.00;41.76;98526.20;107850;1260;68109;-87
2023/06/05 06:41:21;;;;;;;4.40;2.30;;;;;;;23.01;41.77;98525.92;107447;1253;72544;-87
2023/06/05 06:43:48;;;;;;;4.60;2.30;;;;;;;23.04;41.91;98527.44;108035;1253;60244;-88
2023/06/05 06:46:17;;;;;;;6.30;2.90;;;;;;;23.05;42.11;98529.52;106155;1254;59584;-86
2023/06/05 06:48:47;;;;;;;5.70;2.70;;;;;;;23.07;41.96;98527.08;106192;1256;74476;-88
2023/06/05 06:51:17;;;;;;;12.20;3.20;;;;;;;23.08;42.20;98527.63;106567;1254;68030;-90
2023/06/05 06:53:45;;;;;;;6.70;2.80;;;;;;;23.13;42.23;98528.30;107322;1253;72408;-91
2023/06/05 06:56:15;;;;;;;6.70;2.70;;;;;;;23.17;41.83;98528.92;106927;1253;59832;-90
2023/06/05 06:58:45;;;;;;;9.60;2.90;;;;;;;23.19;41.67;98527.48;107017;1253;60457;-93
2023/06/05 07:01:19;;;;;;;5.50;2.90;;;;;;;23.23;41.56;98528.52;106898;1258;73761;-94
2023/06/05 07:03:49;;;;;;;6.00;2.10;;;;;;;23.26;41.19;98527.73;106636;1253;66686;-91
2023/06/05 07:06:22;;;;;;;3.90;3.00;;;;;;;23.29;41.15;98526.27;107148;1254;73889;-85
2023/06/05 07:08:50;;;;;;;5.60;2.50;;;;;;;23.32;41.25;98525.52;106407;1253;59727;-90
2023/06/05 07:11:18;;;;;;;14.60;2.80;;;;;;;23.34;41.45;98524.38;109196;1254;59207;-91
2023/06/05 07:13:45;;;;;;;5.70;2.70;;;;;;;23.38;41.60;98526.63;109277;1254;73024;-91
2023/06/05 07:16:13;;;;;;;12.60;3.30;;;;;;;23.43;41.67;98529.75;109327;1254;67560;-91
2023/06/05 07:18:40;;;;;;;6.30;2.40;;;;;;;23.48;41.67;98528.55;109444;1253;72042;-90
2023/06/05 07:21:12;;;;;;;7.40;2.70;;;;;;;23.54;41.71;98524.98;109168;1253;58919;-95
2023/06/05 07:23:44;;;;;;;7.10;2.90;;;;;;;23.60;41.44;98527.86;109294;1252;58950;-95
2023/06/05 07:26:15;;;;;;;4.30;2.10;;;;;;;23.64;41.41;98525.73;109202;1253;73384;-94
2023/06/05 07:28:43;;;;;;;7.70;2.50;;;;;;;23.68;41.46;98528.06;109012;1254;69488;-91
2023/06/05 07:31:13;;;;;;;7.20;2.80;;;;;;;23.72;41.56;98526.05;109107;1253;73727;-93
2023/06/05 07:33:42;;;;;;;6.30;2.50;;;;;;;23.75;41.66;98524.71;108997;1253;59638;-88
2023/06/05 07:36:11;;;;;;;5.80;2.60;;;;;;;23.78;41.44;98523.79;109155;1254;60187;-91
2023/06/05 07:38:40;;;;;;;6.50;2.60;;;;;;;23.81;41.48;98524.72;109020;1254;71668;-92
2023/06/05 07:41:09;;;;;;;4.60;2.10;;;;;;;23.85;41.45;98525.27;109148;1254;67347;-91
2023/06/05 07:43:41;;;;;;;5.10;2.40;;;;;;;23.88;41.20;98529.07;108952;1253;72666;-91
2023/06/05 07:46:10;;;;;;;6.20;3.10;;;;;;;23.91;41.16;98526.37;109363;1252;59154;-95
2023/06/05 07:48:40;;;;;;;5.30;2.30;;;;;;;23.94;41.35;98528.98;109381;1253;58802;-90
2023/06/05 07:51:08;;;;;;;7.90;2.80;;;;;;;23.99;41.48;98526.47;109222;1254;71825;-88
2023/06/05 07:53:39;;;;;;;5.80;2.60;;;;;;;24.02;41.41;98526.81;109405;1253;69143;-86
2023/06/05 07:56:11;;;;;;;4.10;2.50;;;;;;;24.04;41.42;98526.59;109348;1253;71475;-93
2023/06/05 07:58:41;;;;;;;5.90;2.30;;;;;;;24.06;41.47;98527.56;109353;1253;60467;-94
2023/06/05 08:01:11;;;;;;;4.80;2.40;;;;;;;24.07;41.52;98522.27;109261;1253;61295;-91
2023/06/05 08:03:43;;;;;;;2.70;2.40;;;;;;;24.09;41.49;98521.85;109165;1254;72682;-91
2023/06/05 08:06:17;;;;;;;4.90;2.10;;;;;;;24.12;41.44;98518.56;109489;1256;67805;-93
2023/06/05 08:08:49;;;;;;;8.80;2.60;;;;;;;24.13;41.30;98514.36;109159;1261;71489;-91
2023/06/05 08:11:17;;;;;;;4.40;1.80;;;;;;;24.15;41.12;98514.30;109022;1261;59167;-90
2023/06/05 08:13:48;;;;;;;4.40;2.40;;;;;;;24.17;40.95;98510.39;108892;1261;60061;-94
2023/06/05 08:16:15;;;;;;;6.30;2.00;;;;;;;24.18;41.03;98506.64;108864;1261;74204;-91
2023/06/05 08:18:48;;;;;;;7.10;2.10;;;;;;;24.19;40.85;98509.32;108949;1262;68894;-91
2023/06/05 08:21:21;;;;;;;4.90;2.20;;;;;;;24.22;40.96;98509.86;108941;1261;71487;-95
2023/06/05 08:23:49;;;;;;;6.70;2.20;;;;;;;24.28;40.92;98509.00;108838;1261;58964;-96
2023/06/05 08:26:43;;;;;;;7.90;2.00;;;;;;;24.31;40.86;98505.59;108928;1261;58842;-94
2023/06/05 08:29:12;;;;;;;26.20;2.40;;;;;;;24.33;40.70;98507.21;108636;1266;71663;-95
2023/06/05 08:31:41;;;;;;;3.40;1.90;;;;;;;24.34;40.77;98501.20;108651;1266;67331;-90
2023/06/05 08:34:12;;;;;;;5.00;1.90;;;;;;;24.35;40.62;98506.27;108442;1267;72720;-92
2023/06/05 08:36:42;;;;;;;5.90;2.20;;;;;;;24.35;40.50;98500.19;108580;1266;59065;-92
2023/06/05 08:39:12;;;;;;;9.80;2.00;;;;;;;24.35;40.43;98500.95;108579;1266;58765;-90
2023/06/05 08:41:42;;;;;;;4.40;2.30;;;;;;;24.35;40.56;98498.50;108652;1266;72461;-93
2023/06/05 08:44:14;;;;;;;3.00;1.90;;;;;;;24.39;40.80;98492.21;108621;1266;68790;-83
2023/06/05 08:46:41;;;;;;;3.40;1.60;;;;;;;24.43;40.74;98497.02;108637;1266;71543;-84
2023/06/05 08:49:11;;;;;;;4.50;1.90;;;;;;;24.46;40.60;98500.82;108400;1267;60365;-84
2023/06/05 08:51:40;;;;;;;2.40;1.70;;;;;;;24.49;40.39;98499.93;108635;1266;60129;-84
2023/06/05 08:54:12;;;;;;;2.00;1.40;;;;;;;24.51;40.38;98501.27;108607;1267;74156;-85
2023/06/05 08:56:43;;;;;;;2.10;1.50;;;;;;;24.54;40.34;98491.79;108592;1267;68697;-83
2023/06/05 08:59:14;;;;;;;2.00;1.40;;;;;;;24.57;40.29;98490.36;108451;1264;72092;-84
2023/06/05 09:01:47;;;;;;;4.80;1.70;;;;;;;24.59;40.19;98491.03;108891;1261;60362;-84
2023/06/05 09:04:17;;;;;;;4.80;1.60;;;;;;;24.61;40.17;98491.34;108976;1262;60422;-82
2023/06/05 09:06:51;;;;;;;4.00;1.50;;;;;;;24.61;39.84;98495.29;108953;1262;72928;-87
2023/06/05 09:09:22;;;;;;;4.90;1.40;;;;;;;24.62;39.88;98496.00;108927;1264;67564;-84
2023/06/05 09:13:46;;;;;;;3.10;1.60;;;;;;;24.64;39.76;98494.00;106125;1290;612984;-84
2023/06/05 09:16:13;;;;;;;2.90;1.50;;;;;;;24.63;39.34;98493.66;108682;1265;59175;-85
2023/06/05 09:18:57;;;;;;;3.60;1.30;;;;;;;24.63;39.23;98496.23;108772;1265;59287;-82
2023/06/05 09:21:32;;;;;;;2.90;1.70;;;;;;;24.62;39.00;98492.09;107705;1265;71239;-83
2023/06/05 09:24:11;;;;;;;4.20;1.30;;;;;;;24.62;38.94;98487.35;106058;1265;68396;-83
2023/06/05 09:26:59;;;;;;;2.10;1.40;;;;;;;24.61;38.90;98481.39;105678;1263;154902;-82
2023/06/05 09:29:40;;;;;;;1.30;1.20;;;;;;;24.61;38.87;98479.10;106191;1262;60643;-83
2023/06/05 09:32:15;;;;;;;1.90;1.30;;;;;;;24.61;38.92;98484.41;106273;1263;60968;-83
2023/06/05 09:34:44;;;;;;;3.80;2.00;;;;;;;24.60;38.88;98487.45;106315;1262;72513;-83
2023/06/05 09:37:12;;;;;;;6.60;1.40;;;;;;;24.58;38.79;98483.08;106063;1267;67775;-83
2023/06/05 09:39:46;;;;;;;6.00;1.40;;;;;;;24.56;38.76;98486.84;105905;1263;73445;-81
2023/06/05 09:42:14;;;;;;;1.80;1.50;;;;;;;24.54;38.69;98471.98;105860;1262;60868;-85
2023/06/05 09:44:43;;;;;;;2.10;1.50;;;;;;;24.53;38.81;98479.45;105630;1262;60757;-83
2023/06/05 09:47:17;;;;;;;3.50;1.50;;;;;;;24.52;38.96;98477.02;105629;1263;72122;-83
2023/06/05 09:49:48;;;;;;;2.70;1.50;;;;;;;24.51;38.82;98476.52;105923;1260;66850;-82
2023/06/05 09:52:21;;;;;;;2.90;1.20;;;;;;;24.51;38.86;98481.91;105816;1262;71316;-84
2023/06/05 09:54:54;;;;;;;4.40;1.40;;;;;;;24.50;38.90;98475.41;105907;1263;59740;-82
2023/06/05 09:57:22;;;;;;;1.60;1.00;;;;;;;24.50;38.84;98478.50;105704;1260;59672;-83
2023/06/05 09:59:54;;;;;;;3.70;1.60;;;;;;;24.50;38.57;98472.48;105855;1263;72970;-83
2023/06/05 10:02:26;;;;;;;4.30;1.10;;;;;;;24.50;38.56;98471.56;105614;1262;67020;-82
2023/06/05 10:05:03;;;;;;;4.20;1.40;;;;;;;24.49;38.46;98472.08;105692;1269;71401;-85
2023/06/05 10:07:36;;;;;;;3.60;1.60;;;;;;;24.50;38.88;98470.49;105704;1263;59852;-86
2023/06/05 10:10:06;;;;;;;2.90;1.20;;;;;;;24.51;38.76;98474.40;105608;1262;60266;-86
2023/06/05 10:12:35;;;;;;;2.80;1.40;;;;;;;24.52;38.76;98472.17;106281;1267;73781;-85
2023/06/05 10:15:05;;;;;;;8.90;2.10;;;;;;;24.53;38.80;98470.20;105636;1262;68862;-83
2023/06/05 10:17:33;;;;;;;3.80;1.50;;;;;;;24.55;38.82;98465.63;105579;1267;71703;-84
2023/06/05 10:20:01;;;;;;;2.10;1.30;;;;;;;24.58;39.04;98463.52;105491;1262;59755;-85
2023/06/05 10:22:31;;;;;;;2.40;1.30;;;;;;;24.61;38.98;98461.90;105692;1262;60141;-85
2023/06/05 10:25:02;;;;;;;2.30;1.30;;;;;;;24.62;38.82;98461.67;105537;1267;73050;-83
2023/06/05 10:28:01;;;;;;;3.10;1.10;;;;;;;24.63;38.69;98454.95;105590;1266;68308;-86
2023/06/05 10:30:37;;;;;;;3.00;1.60;;;;;;;24.65;38.82;98452.70;105826;1268;71749;-89
2023/06/05 10:33:38;;;;;;;7.90;1.60;;;;;;;24.67;38.79;98447.00;106130;1262;59664;-88
2023/06/05 10:36:40;;;;;;;2.20;1.40;;;;;;;24.68;39.06;98444.23;105754;1266;59647;-88
2023/06/05 10:39:12;;;;;;;2.60;1.50;;;;;;;24.71;39.34;98445.65;105622;1267;73525;-87
2023/06/05 10:41:51;;;;;;;4.30;1.90;;;;;;;24.73;39.28;98442.04;105734;1263;68686;-87
2023/06/05 10:44:42;;;;;;;4.00;1.50;;;;;;;24.74;39.20;98447.59;108780;1262;70814;-87
2023/06/05 10:47:32;;;;;;;7.40;1.70;;;;;;;24.75;38.84;98444.09;109100;1255;59411;-86
2023/06/05 10:50:19;;;;;;;3.60;1.60;;;;;;;24.77;38.86;98444.74;107349;1255;59593;-88
2023/06/05 10:52:51;;;;;;;2.00;1.30;;;;;;;24.80;38.88;98444.35;106547;1256;73062;-87
2023/06/05 10:55:23;;;;;;;;;;;;;;;24.82;38.46;98445.25;106362;1258;69385;-87
2023/06/05 11:04:18;;;;;;;6.00;2.70;;;;;;;24.89;38.69;98435.39;103343;1292;614401;-87
2023/06/05 11:07:24;;;;;;;2.60;1.70;;;;;;;24.90;38.58;98434.67;105929;1265;61115;-88
2023/06/05 11:10:04;;;;;;;4.20;1.50;;;;;;;24.92;38.39;98432.23;105952;1264;59368;-86
2023/06/05 11:12:36;;;;;;;1.50;1.40;;;;;;;24.94;38.47;98432.80;106811;1257;73609;-89
2023/06/05 11:15:14;;;;;;;3.80;1.30;;;;;;;24.94;38.37;98437.80;106262;1261;67743;-86
2023/06/05 11:17:44;;;;;;;4.70;2.00;;;;;;;24.96;38.44;98443.30;106807;1260;231210;-88
2023/06/05 11:20:24;;;;;;;3.60;1.40;;;;;;;24.96;38.26;98432.52;107043;1256;60782;-88
2023/06/05 11:22:55;;;;;;;2.50;1.40;;;;;;;24.97;38.57;98437.66;106639;1259;59403;-86
2023/06/05 11:25:26;;;;;;;4.00;1.60;;;;;;;24.98;38.50;98437.04;106421;1258;72276;-87
2023/06/05 11:28:01;;;;;;;2.20;1.60;;;;;;;24.98;38.62;98434.40;106758;1256;68298;-89
2023/06/05 11:30:33;;;;;;;3.70;1.40;;;;;;;24.99;38.74;98433.23;106648;1257;72925;-88
2023/06/05 11:33:17;;;;;;;4.20;1.70;;;;;;;25.00;38.54;98431.04;106312;1257;59763;-86
2023/06/05 11:35:48;;;;;;;3.90;1.50;;;;;;;25.01;38.69;98432.88;106533;1254;59548;-87
2023/06/05 11:38:22;;;;;;;3.10;1.40;;;;;;;25.03;38.57;98432.71;106914;1260;72240;-86
2023/06/05 11:40:52;;;;;;;6.20;2.00;;;;;;;25.04;38.83;98429.73;106703;1254;69432;-87
2023/06/05 11:43:21;;;;;;;3.50;1.70;;;;;;;25.08;39.33;98428.19;106710;1254;73107;-85
2023/06/05 11:45:50;;;;;;;6.90;2.90;;;;;;;25.11;39.46;98421.16;107515;1254;59669;-86
2023/06/05 11:48:19;;;;;;;7.80;1.70;;;;;;;25.15;39.51;98409.68;107101;1254;60295;-89
2023/06/05 11:51:03;;;;;;;2.80;1.40;;;;;;;25.19;39.46;98411.29;107200;1256;72444;-88
2023/06/05 11:53:39;;;;;;;3.70;1.90;;;;;;;25.24;39.49;98409.55;106988;1256;68418;-87
2023/06/05 11:56:27;;;;;;;5.90;1.90;;;;;;;25.29;39.17;98409.39;106751;1254;71435;-87
2023/06/05 11:59:09;;;;;;;3.80;1.90;;;;;;;25.33;38.95;98409.92;106931;1259;60636;-88
2023/06/05 12:01:37;;;;;;;5.40;2.00;;;;;;;25.37;38.55;98407.38;107006;1254;59548;-86
2023/06/05 12:04:07;;;;;;;2.10;1.60;;;;;;;25.41;38.54;98403.38;107030;1254;71879;-88
2023/06/05 12:06:47;;;;;;;6.10;1.90;;;;;;;25.44;38.81;98402.09;107296;1255;69730;-90
2023/06/05 12:09:17;;;;;;;3.30;2.00;;;;;;;25.48;38.59;98393.70;106802;1256;72154;-87
2023/06/05 12:11:48;;;;;;;2.10;1.70;;;;;;;25.51;38.35;98396.58;106763;1255;59731;-85
2023/06/05 12:14:31;;;;;;;3.00;2.10;;;;;;;25.54;38.34;98396.15;106498;1254;59707;-86